Time;durP1;ratioP1;P1;durP2;ratioP2;P2;SDS_P1;SDS_P2;PMS_P1;PMS_P2;Temp;Humidity;BMP_temperature;BMP_pressure;BME280_temperature;BME280_humidity;BME280_pressure;Samples;Min_cycle;Max_cycle;Signal;HPM_P1;HPM_P2
2021/06/30 00:02:23;;;;;;;2.00;0.55;;;15.30;99.90;;;;;;5069686;28;20619;-86
2021/06/30 00:04:49;;;;;;;1.80;0.50;;;15.30;99.90;;;;;;5053059;28;20078;-92
2021/06/30 00:07:20;;;;;;;1.65;0.70;;;15.30;99.90;;;;;;5053582;28;20037;-93
2021/06/30 00:09:45;;;;;;;1.38;0.47;;;15.20;99.90;;;;;;5053364;28;20092;-94
2021/06/30 00:12:11;;;;;;;1.25;0.50;;;15.20;99.90;;;;;;5036093;28;20029;-94
2021/06/30 00:14:37;;;;;;;2.50;0.57;;;15.10;99.90;;;;;;5052582;28;20040;-95
2021/06/30 00:17:08;;;;;;;1.35;0.60;;;15.20;99.90;;;;;;5052261;28;20044;-94
2021/06/30 00:19:34;;;;;;;1.10;0.40;;;15.20;99.90;;;;;;5070022;28;20037;-93
2021/06/30 00:22:00;;;;;;;1.23;0.38;;;15.20;99.90;;;;;;5052351;28;20037;-94
2021/06/30 00:24:25;;;;;;;1.02;0.40;;;15.20;99.90;;;;;;5052067;28;20036;-91
2021/06/30 00:26:51;;;;;;;1.15;0.40;;;15.30;99.90;;;;;;5035756;28;20120;-92
2021/06/30 00:29:16;;;;;;;0.75;0.40;;;15.30;99.90;;;;;;5070006;28;20052;-91
2021/06/30 00:31:42;;;;;;;1.15;0.57;;;15.30;99.90;;;;;;5052231;28;20048;-94
2021/06/30 00:34:08;;;;;;;0.90;0.35;;;15.20;99.90;;;;;;5052072;28;20103;-94
2021/06/30 00:36:36;;;;;;;1.50;0.40;;;15.30;99.90;;;;;;5035425;28;20029;-93
2021/06/30 00:39:25;;;;;;;1.55;0.40;;;15.20;99.90;;;;;;5052093;28;20033;-95
2021/06/30 00:41:51;;;;;;;3.17;0.40;;;15.20;99.90;;;;;;5051981;28;20056;-95
2021/06/30 00:44:17;;;;;;;1.35;0.50;;;15.20;99.90;;;;;;5035431;28;20043;-92
2021/06/30 00:46:42;;;;;;;1.63;0.40;;;15.20;99.90;;;;;;5035414;28;20028;-92
2021/06/30 00:49:09;;;;;;;1.02;0.40;;;15.30;99.90;;;;;;5067485;28;20049;-96
2021/06/30 00:51:35;;;;;;;1.20;0.40;;;15.20;99.90;;;;;;5071684;28;20033;-94
2021/06/30 00:54:01;;;;;;;1.92;0.40;;;15.20;99.90;;;;;;5055323;28;20032;-94
2021/06/30 00:56:28;;;;;;;2.00;0.40;;;15.10;99.90;;;;;;5072368;28;20032;-96
2021/06/30 00:58:57;;;;;;;1.10;0.50;;;15.10;99.90;;;;;;5055560;28;20100;-95
2021/06/30 01:01:25;;;;;;;2.20;0.30;;;15.10;99.90;;;;;;5071512;28;20052;-93
2021/06/30 01:03:51;;;;;;;0.82;0.40;;;15.10;99.90;;;;;;5089373;28;20020;-95
2021/06/30 01:06:18;;;;;;;0.70;0.32;;;15.10;99.90;;;;;;5071350;28;20036;-94
2021/06/30 01:08:47;;;;;;;0.90;0.40;;;15.10;99.90;;;;;;5054374;28;20036;-91
2021/06/30 01:11:14;;;;;;;1.33;0.30;;;15.20;99.90;;;;;;5054709;28;20037;-94
2021/06/30 01:13:41;;;;;;;0.55;0.30;;;15.20;99.90;;;;;;5071260;28;20029;-94
2021/06/30 01:16:07;;;;;;;0.60;0.30;;;15.20;99.90;;;;;;5071188;28;20029;-95
2021/06/30 01:18:34;;;;;;;0.65;0.32;;;15.10;99.90;;;;;;5089207;28;20024;-94
2021/06/30 01:21:02;;;;;;;0.68;0.30;;;14.90;99.90;;;;;;5089004;28;20041;-95
2021/06/30 01:23:30;;;;;;;1.38;0.30;;;15.00;99.90;;;;;;5070972;28;20031;-95
2021/06/30 01:25:57;;;;;;;0.82;0.40;;;15.00;99.90;;;;;;5071133;28;20100;-94
2021/06/30 01:28:34;;;;;;;0.75;0.40;;;14.90;99.90;;;;;;5071008;28;20086;-93
2021/06/30 01:31:00;;;;;;;1.70;0.40;;;15.00;99.90;;;;;;5088951;28;20070;-95
2021/06/30 01:33:26;;;;;;;0.55;0.30;;;14.90;99.90;;;;;;5071146;28;20032;-94
2021/06/30 01:35:52;;;;;;;1.17;0.30;;;14.90;99.90;;;;;;5088706;28;20078;-94
2021/06/30 01:38:28;;;;;;;0.98;0.30;;;15.00;99.90;;;;;;5054322;28;20055;-93
2021/06/30 01:40:56;;;;;;;1.88;0.30;;;14.90;99.90;;;;;;5088701;28;20090;-94
2021/06/30 01:43:23;;;;;;;0.98;0.30;;;14.90;99.90;;;;;;5070711;28;20033;-94
2021/06/30 01:48:47;;;;;;;1.20;0.40;;;14.80;99.90;;;;;;5025991;28;20099;-93
2021/06/30 01:51:12;;;;;;;0.77;0.30;;;14.80;99.90;;;;;;5009823;28;20162;-93
2021/06/30 01:53:38;;;;;;;0.82;0.40;;;14.90;99.90;;;;;;5026617;28;20034;-93
2021/06/30 01:56:04;;;;;;;1.25;0.40;;;14.80;99.90;;;;;;5015079;28;20593;-91
2021/06/30 01:58:30;;;;;;;0.70;0.30;;;14.90;99.90;;;;;;5007024;28;20089;-93
2021/06/30 02:00:56;;;;;;;0.80;0.30;;;14.90;99.90;;;;;;5006831;28;20118;-90
2021/06/30 02:03:21;;;;;;;1.35;0.40;;;14.90;99.90;;;;;;5006919;28;20030;-91
2021/06/30 02:05:47;;;;;;;1.10;0.50;;;14.80;99.90;;;;;;4990544;28;20046;-93
2021/06/30 02:08:14;;;;;;;2.92;0.50;;;14.70;99.90;;;;;;4990312;28;20034;-93
2021/06/30 02:10:40;;;;;;;0.77;0.32;;;14.70;99.90;;;;;;4990707;28;20031;-93
2021/06/30 02:13:06;;;;;;;0.93;0.38;;;14.70;99.90;;;;;;5006414;28;20043;-94
2021/06/30 02:15:34;;;;;;;0.65;0.30;;;14.80;99.90;;;;;;4990166;28;20073;-94
2021/06/30 02:18:02;;;;;;;1.23;0.40;;;14.80;99.90;;;;;;5006441;28;20129;-94
2021/06/30 02:20:29;;;;;;;0.77;0.20;;;14.80;99.90;;;;;;5005920;28;20050;-91
2021/06/30 02:22:57;;;;;;;1.02;0.35;;;14.80;99.90;;;;;;5006436;28;20038;-93
2021/06/30 02:25:28;;;;;;;1.10;0.40;;;14.80;99.90;;;;;;4995113;28;20095;-91
2021/06/30 02:27:58;;;;;;;1.00;0.40;;;14.80;99.90;;;;;;5049746;28;20039;-95
2021/06/30 02:30:30;;;;;;;1.67;0.30;;;14.80;99.90;;;;;;5033307;28;20040;-94
2021/06/30 02:32:56;;;;;;;1.58;0.40;;;14.80;99.90;;;;;;5033209;28;20033;-95
2021/06/30 02:35:23;;;;;;;1.55;0.40;;;14.70;99.90;;;;;;5049720;28;20116;-95
2021/06/30 02:37:53;;;;;;;0.80;0.38;;;14.70;99.90;;;;;;5049554;28;20087;-94
2021/06/30 02:40:20;;;;;;;1.25;0.40;;;14.70;99.90;;;;;;5049619;28;20045;-94
2021/06/30 02:42:46;;;;;;;0.93;0.30;;;14.60;99.90;;;;;;5049612;28;20081;-93
2021/06/30 02:45:15;;;;;;;1.20;0.40;;;14.60;99.90;;;;;;5049598;28;20527;-88
2021/06/30 02:47:42;;;;;;;1.70;0.43;;;14.60;99.90;;;;;;5048833;28;20036;-88
2021/06/30 02:50:09;;;;;;;2.15;0.40;;;14.50;99.90;;;;;;5049143;28;20029;-85
2021/06/30 02:52:35;;;;;;;1.00;0.40;;;14.60;99.90;;;;;;5048878;28;20040;-92
2021/06/30 02:55:01;;;;;;;0.82;0.30;;;14.60;99.90;;;;;;5032627;28;20049;-92
2021/06/30 02:57:26;;;;;;;1.65;0.40;;;14.60;99.90;;;;;;5048899;28;20366;-90
2021/06/30 02:59:52;;;;;;;0.93;0.60;;;14.60;99.90;;;;;;5065746;28;20033;-89
2021/06/30 03:02:18;;;;;;;0.90;0.40;;;14.60;99.90;;;;;;5048954;28;20036;-88
2021/06/30 03:04:43;;;;;;;2.08;0.50;;;14.60;99.90;;;;;;5048734;28;20053;-87
2021/06/30 03:07:10;;;;;;;1.20;0.65;;;14.60;99.90;;;;;;5048954;28;20040;-83
2021/06/30 03:09:36;;;;;;;1.10;0.40;;;14.50;99.90;;;;;;5049005;28;20029;-84
2021/06/30 03:12:02;;;;;;;1.08;0.45;;;14.50;99.90;;;;;;5048788;28;20033;-90
2021/06/30 03:14:29;;;;;;;1.20;0.45;;;14.50;99.90;;;;;;5066257;28;20033;-87
2021/06/30 03:16:55;;;;;;;1.13;0.40;;;14.50;99.90;;;;;;5048758;28;20047;-88
2021/06/30 03:19:20;;;;;;;1.35;0.40;;;14.50;99.90;;;;;;5048452;28;20044;-90
2021/06/30 03:21:46;;;;;;;0.80;0.40;;;14.50;99.90;;;;;;5048404;28;20047;-89
2021/06/30 03:24:12;;;;;;;2.08;0.30;;;14.50;99.90;;;;;;5048432;28;20465;-86
2021/06/30 03:26:37;;;;;;;0.85;0.40;;;14.50;99.90;;;;;;5048565;28;20061;-90
2021/06/30 03:29:06;;;;;;;0.55;0.22;;;14.50;99.90;;;;;;5031773;28;20029;-89
2021/06/30 03:31:32;;;;;;;1.15;0.32;;;14.50;99.90;;;;;;5074817;28;20038;-88
2021/06/30 03:33:57;;;;;;;1.40;0.30;;;14.50;99.90;;;;;;5068350;28;20036;-85
2021/06/30 03:36:23;;;;;;;0.80;0.30;;;14.50;99.90;;;;;;5051973;28;20116;-90
2021/06/30 03:38:50;;;;;;;0.40;0.20;;;14.40;99.90;;;;;;5052374;28;20631;-90
2021/06/30 03:41:15;;;;;;;0.60;0.20;;;14.40;99.90;;;;;;5052043;28;20043;-90
2021/06/30 03:43:41;;;;;;;0.70;0.20;;;14.50;99.90;;;;;;5086509;28;20028;-94
2021/06/30 03:46:27;;;;;;;0.52;0.20;;;14.50;99.90;;;;;;5069144;28;20032;-94
2021/06/30 03:48:52;;;;;;;0.88;0.20;;;14.50;99.90;;;;;;5004725;28;20185;-95
2021/06/30 03:51:18;;;;;;;0.40;0.20;;;14.50;99.90;;;;;;4989154;28;20030;-94
2021/06/30 03:53:44;;;;;;;1.70;0.22;;;14.50;99.90;;;;;;4988751;28;20453;-89
2021/06/30 03:56:10;;;;;;;0.77;0.20;;;14.50;99.90;;;;;;4989054;28;20142;-94
2021/06/30 03:58:38;;;;;;;0.70;0.20;;;14.50;99.90;;;;;;5005425;28;20043;-92
2021/06/30 04:01:03;;;;;;;0.70;0.30;;;14.50;99.90;;;;;;4988648;28;20057;-95
2021/06/30 04:03:29;;;;;;;1.55;0.28;;;14.50;99.90;;;;;;5005066;28;20038;-96
2021/06/30 04:05:55;;;;;;;0.40;0.20;;;14.60;99.90;;;;;;5005248;28;20114;-94
2021/06/30 04:08:32;;;;;;;0.80;0.30;;;14.60;99.90;;;;;;5005455;28;20041;-94
2021/06/30 04:10:58;;;;;;;0.90;0.30;;;14.60;99.90;;;;;;5005210;28;20035;-95
2021/06/30 04:13:24;;;;;;;0.60;0.30;;;14.50;99.90;;;;;;5005139;28;20178;-95
2021/06/30 04:15:49;;;;;;;0.63;0.20;;;14.60;99.90;;;;;;4988664;28;20121;-95
2021/06/30 04:18:21;;;;;;;1.52;0.35;;;14.60;99.90;;;;;;4988965;28;20038;-95
2021/06/30 04:20:47;;;;;;;0.60;0.25;;;14.50;99.90;;;;;;4988775;28;20050;-93
2021/06/30 04:23:13;;;;;;;1.05;0.30;;;14.50;99.90;;;;;;4988244;28;20126;-94
2021/06/30 04:25:39;;;;;;;0.82;0.40;;;14.60;99.90;;;;;;5010777;28;20049;-94
2021/06/30 04:28:06;;;;;;;0.90;0.30;;;14.60;99.90;;;;;;5047926;28;20029;-88
2021/06/30 04:30:31;;;;;;;1.00;0.30;;;14.60;99.90;;;;;;5047674;28;20489;-92
2021/06/30 04:32:57;;;;;;;0.82;0.32;;;14.60;99.90;;;;;;5065170;28;20059;-84
2021/06/30 04:35:23;;;;;;;0.98;0.32;;;14.60;99.90;;;;;;5047335;28;20048;-87
2021/06/30 04:37:51;;;;;;;1.20;0.40;;;14.60;99.90;;;;;;5065568;28;20035;-87
2021/06/30 04:40:16;;;;;;;1.48;0.40;;;14.50;99.90;;;;;;5064975;28;20132;-84
2021/06/30 04:42:42;;;;;;;1.17;0.50;;;14.60;99.90;;;;;;5048614;28;20108;-91
2021/06/30 04:45:08;;;;;;;0.70;0.50;;;14.70;99.90;;;;;;5068751;28;20493;-92
2021/06/30 04:47:33;;;;;;;2.00;0.50;;;14.70;99.90;;;;;;5050570;28;20041;-87
2021/06/30 04:49:59;;;;;;;1.00;0.40;;;14.70;99.90;;;;;;5050918;28;20097;-92
2021/06/30 04:52:24;;;;;;;0.90;0.38;;;14.70;99.90;;;;;;5050197;28;20029;-92
2021/06/30 04:54:50;;;;;;;1.52;0.40;;;14.60;99.90;;;;;;5069680;28;20371;-89
2021/06/30 04:57:18;;;;;;;1.42;0.40;;;14.70;99.90;;;;;;5070513;28;20032;-88
2021/06/30 04:59:44;;;;;;;2.03;0.60;;;14.60;99.90;;;;;;5070650;28;20104;-89
2021/06/30 05:02:10;;;;;;;0.70;0.40;;;14.60;99.90;;;;;;5070585;28;20032;-95
2021/06/30 05:04:36;;;;;;;1.10;0.50;;;14.60;99.90;;;;;;5070473;28;20029;-81
2021/06/30 05:07:02;;;;;;;2.25;0.50;;;14.60;99.90;;;;;;5067738;28;20043;-82
2021/06/30 05:09:27;;;;;;;1.95;0.60;;;14.60;99.90;;;;;;5067789;28;20104;-88
2021/06/30 05:11:53;;;;;;;1.90;0.50;;;14.60;99.90;;;;;;5033369;28;20033;-91
2021/06/30 05:14:18;;;;;;;2.38;0.57;;;14.60;99.90;;;;;;5049913;28;20029;-84
2021/06/30 05:16:44;;;;;;;1.30;0.55;;;14.60;99.90;;;;;;5055201;28;20037;-87
2021/06/30 05:19:10;;;;;;;1.40;0.40;;;14.60;99.90;;;;;;5048019;28;20138;-90
2021/06/30 05:21:36;;;;;;;1.20;0.50;;;14.60;99.90;;;;;;5050749;28;20037;-86
2021/06/30 05:24:01;;;;;;;1.35;0.47;;;14.70;99.90;;;;;;5067515;28;20067;-93
2021/06/30 05:26:27;;;;;;;1.45;0.60;;;14.70;99.90;;;;;;5049636;28;20036;-84
2021/06/30 05:28:57;;;;;;;1.02;0.60;;;14.70;99.90;;;;;;5064542;28;20086;-93
2021/06/30 05:31:25;;;;;;;1.40;0.50;;;14.70;99.90;;;;;;5063976;28;20025;-89
2021/06/30 05:33:52;;;;;;;1.98;0.60;;;14.60;99.90;;;;;;5066478;28;20119;-90
2021/06/30 05:36:18;;;;;;;3.03;0.85;;;14.60;99.90;;;;;;5083590;28;20179;-81
2021/06/30 05:38:49;;;;;;;2.15;0.60;;;14.60;99.90;;;;;;5069310;28;20040;-91
2021/06/30 05:41:14;;;;;;;1.38;0.50;;;14.50;99.90;;;;;;5069606;28;20045;-84
2021/06/30 05:43:40;;;;;;;1.30;0.55;;;14.50;99.90;;;;;;5069224;28;20032;-88
2021/06/30 05:46:28;;;;;;;1.30;0.60;;;14.50;99.90;;;;;;5067093;28;20044;-83
2021/06/30 05:48:53;;;;;;;4.28;0.70;;;14.50;99.90;;;;;;5025555;28;20057;-88
2021/06/30 05:51:19;;;;;;;2.38;0.95;;;14.60;99.90;;;;;;5027432;28;20033;-85
2021/06/30 05:53:45;;;;;;;3.00;0.50;;;14.50;99.90;;;;;;5044057;28;20037;-82
2021/06/30 05:56:11;;;;;;;1.77;0.80;;;14.60;99.90;;;;;;5046385;28;20033;-84
2021/06/30 05:58:44;;;;;;;2.63;0.88;;;14.50;99.90;;;;;;5029760;28;20033;-88
2021/06/30 06:01:10;;;;;;;1.83;0.80;;;14.40;99.90;;;;;;5026725;28;20211;-84
2021/06/30 06:03:36;;;;;;;3.42;0.88;;;14.40;99.90;;;;;;5027153;28;20080;-87
2021/06/30 06:06:02;;;;;;;2.75;0.73;;;14.50;99.90;;;;;;5043893;28;20038;-89
2021/06/30 06:08:27;;;;;;;2.75;0.70;;;14.50;99.90;;;;;;5027041;28;20029;-83
2021/06/30 06:10:53;;;;;;;1.77;0.50;;;14.50;99.90;;;;;;5044111;28;20044;-85
2021/06/30 06:13:19;;;;;;;1.90;1.02;;;14.50;99.90;;;;;;5026732;28;20127;-86
2021/06/30 06:15:44;;;;;;;2.33;0.85;;;14.50;99.90;;;;;;5026724;28;20040;-82
2021/06/30 06:18:10;;;;;;;3.15;1.13;;;14.40;99.90;;;;;;5007368;28;20556;-86
2021/06/30 06:20:36;;;;;;;2.05;0.65;;;14.50;99.90;;;;;;5026978;28;20044;-82
2021/06/30 06:23:02;;;;;;;1.55;0.70;;;14.50;99.90;;;;;;5040482;28;20052;-86
2021/06/30 06:25:27;;;;;;;1.75;0.82;;;14.50;99.90;;;;;;5019892;28;20033;-83
2021/06/30 06:27:53;;;;;;;3.88;0.90;;;14.50;99.90;;;;;;5059505;28;20039;-82
2021/06/30 06:30:19;;;;;;;1.42;0.63;;;14.50;99.90;;;;;;5057146;28;20552;-85
2021/06/30 06:32:45;;;;;;;1.33;0.60;;;14.50;99.90;;;;;;5057112;28;20020;-85
2021/06/30 06:35:11;;;;;;;1.85;1.00;;;14.60;99.90;;;;;;5057867;28;20021;-85
2021/06/30 06:37:37;;;;;;;1.73;0.70;;;14.60;99.90;;;;;;5063766;28;20085;-88
2021/06/30 06:40:13;;;;;;;2.25;0.60;;;14.70;99.90;;;;;;5067965;28;20048;-87
2021/06/30 06:42:40;;;;;;;1.98;0.80;;;14.70;99.90;;;;;;5050366;28;20116;-85
2021/06/30 06:45:07;;;;;;;1.80;0.80;;;14.60;99.90;;;;;;5065709;28;20075;-85
2021/06/30 06:47:33;;;;;;;4.05;0.93;;;14.60;99.90;;;;;;5055273;28;20497;-84
2021/06/30 06:49:59;;;;;;;1.75;0.60;;;14.60;99.90;;;;;;5056667;28;20114;-82
2021/06/30 06:52:24;;;;;;;1.83;0.80;;;14.70;99.90;;;;;;5067623;28;20032;-82
2021/06/30 06:54:50;;;;;;;2.88;0.95;;;14.60;99.90;;;;;;5072651;28;20025;-82
2021/06/30 06:57:16;;;;;;;1.50;0.70;;;14.80;99.90;;;;;;5038888;28;20041;-90
2021/06/30 06:59:42;;;;;;;2.08;0.80;;;14.80;99.90;;;;;;5057287;28;20033;-84
2021/06/30 07:02:08;;;;;;;1.98;0.73;;;14.80;99.90;;;;;;5050936;28;20111;-89
2021/06/30 07:04:33;;;;;;;2.42;0.70;;;14.80;99.90;;;;;;5085703;28;20035;-84
2021/06/30 07:06:59;;;;;;;1.40;0.50;;;14.80;99.90;;;;;;5044595;28;20029;-86
2021/06/30 07:09:25;;;;;;;2.90;0.88;;;14.80;99.90;;;;;;5044542;28;20021;-86
2021/06/30 07:11:51;;;;;;;1.42;0.75;;;14.60;99.90;;;;;;5054229;28;20025;-81
2021/06/30 07:14:17;;;;;;;1.60;0.60;;;14.70;99.90;;;;;;5047413;28;20100;-83
2021/06/30 07:16:43;;;;;;;1.60;0.70;;;14.80;99.90;;;;;;5084836;28;20036;-86
2021/06/30 07:19:09;;;;;;;1.50;0.60;;;14.70;99.90;;;;;;5061106;28;20029;-88
2021/06/30 07:21:34;;;;;;;1.85;0.57;;;14.60;99.90;;;;;;5039558;28;20037;-84
2021/06/30 07:24:06;;;;;;;1.40;0.70;;;14.70;99.90;;;;;;5040207;28;20066;-87
2021/06/30 07:26:32;;;;;;;1.20;0.50;;;14.70;99.90;;;;;;5068000;28;20033;-88
2021/06/30 07:28:58;;;;;;;1.50;0.70;;;14.80;99.90;;;;;;5037526;28;20021;-86
2021/06/30 07:31:23;;;;;;;1.88;0.80;;;14.80;99.90;;;;;;5063524;28;20032;-85
2021/06/30 07:33:49;;;;;;;1.38;0.60;;;14.80;99.90;;;;;;5047213;28;20078;-82
2021/06/30 07:36:16;;;;;;;1.20;0.70;;;14.70;99.90;;;;;;5065146;28;20080;-82
2021/06/30 07:38:43;;;;;;;2.38;0.60;;;14.80;99.90;;;;;;5066602;28;20036;-84
2021/06/30 07:41:08;;;;;;;1.80;0.60;;;14.80;99.90;;;;;;5084848;28;20071;-85
2021/06/30 07:43:34;;;;;;;1.25;0.60;;;14.90;99.90;;;;;;5050583;28;20028;-83
2021/06/30 07:46:20;;;;;;;2.05;0.70;;;14.80;99.90;;;;;;5065411;28;20092;-82
2021/06/30 07:48:46;;;;;;;1.50;0.75;;;14.80;99.90;;;;;;5007051;28;20077;-86
2021/06/30 07:51:11;;;;;;;1.20;0.60;;;14.90;99.90;;;;;;5012334;28;20042;-80
2021/06/30 07:53:37;;;;;;;1.35;0.60;;;15.00;99.90;;;;;;5030914;28;20069;-90
2021/06/30 07:56:06;;;;;;;1.88;0.75;;;15.00;99.90;;;;;;5028984;28;20038;-88
2021/06/30 07:58:31;;;;;;;1.48;0.80;;;14.90;99.90;;;;;;5006833;28;20145;-88
2021/06/30 08:00:57;;;;;;;1.52;0.60;;;15.10;99.90;;;;;;5005858;28;20053;-88
2021/06/30 08:03:23;;;;;;;1.83;0.85;;;15.10;99.90;;;;;;5022710;28;20129;-88
2021/06/30 08:05:48;;;;;;;1.80;0.68;;;15.10;99.90;;;;;;5006431;28;20080;-87
2021/06/30 08:08:14;;;;;;;1.40;0.55;;;15.10;99.90;;;;;;5006599;28;20033;-82
2021/06/30 08:10:39;;;;;;;1.20;0.52;;;15.20;99.90;;;;;;5006744;28;20033;-88
2021/06/30 08:13:05;;;;;;;2.15;0.55;;;15.30;99.90;;;;;;5022597;28;20088;-89
2021/06/30 08:15:31;;;;;;;1.40;0.60;;;15.20;99.90;;;;;;5022590;28;20045;-87
2021/06/30 08:17:56;;;;;;;1.38;0.70;;;15.10;99.90;;;;;;4991802;28;20026;-85
2021/06/30 08:20:22;;;;;;;1.75;0.82;;;15.00;99.90;;;;;;5010491;28;20498;-89
2021/06/30 08:22:48;;;;;;;1.75;0.60;;;15.20;99.90;;;;;;5010194;28;20066;-82
2021/06/30 08:25:13;;;;;;;1.55;0.60;;;15.20;99.90;;;;;;5025161;28;20051;-90
2021/06/30 08:27:39;;;;;;;2.00;0.60;;;15.20;99.90;;;;;;5054251;28;20120;-87
2021/06/30 08:30:07;;;;;;;1.17;0.50;;;15.20;99.90;;;;;;5088651;28;20583;-89
2021/06/30 08:32:33;;;;;;;1.10;0.50;;;15.20;99.90;;;;;;5088366;28;20430;-85
2021/06/30 08:34:58;;;;;;;1.20;0.60;;;15.30;99.90;;;;;;5070755;28;20056;-89
2021/06/30 08:37:26;;;;;;;1.27;0.50;;;15.30;99.90;;;;;;5070712;28;20055;-88
2021/06/30 08:39:52;;;;;;;1.45;0.60;;;15.50;99.90;;;;;;5070587;28;20033;-90
2021/06/30 08:42:18;;;;;;;1.20;0.50;;;15.50;99.90;;;;;;5088244;28;20542;-88
2021/06/30 08:44:44;;;;;;;2.10;0.50;;;15.50;99.90;;;;;;5053836;28;20020;-89
2021/06/30 08:47:10;;;;;;;1.45;0.60;;;15.50;99.90;;;;;;5070129;28;20084;-90
2021/06/30 08:49:43;;;;;;;1.40;0.60;;;15.60;99.90;;;;;;5053666;28;20074;-89
2021/06/30 08:52:13;;;;;;;1.30;0.50;;;15.80;99.90;;;;;;5070422;28;20384;-89
2021/06/30 08:54:42;;;;;;;1.60;0.80;;;15.70;99.90;;;;;;5053768;28;20033;-88
2021/06/30 08:57:09;;;;;;;2.10;0.80;;;15.60;99.90;;;;;;5070141;28;20123;-90
2021/06/30 08:59:36;;;;;;;2.05;0.60;;;15.70;99.90;;;;;;5070018;28;20028;-91
2021/06/30 09:02:03;;;;;;;1.27;0.80;;;15.60;99.90;;;;;;5053261;28;20043;-90
2021/06/30 09:04:29;;;;;;;2.45;0.82;;;15.50;99.90;;;;;;5070053;28;20032;-91
2021/06/30 09:06:55;;;;;;;2.47;0.80;;;15.50;99.90;;;;;;5070321;28;20043;-91
2021/06/30 09:09:20;;;;;;;1.40;0.60;;;15.40;99.90;;;;;;5053644;28;20054;-91
2021/06/30 09:11:59;;;;;;;1.52;0.68;;;15.40;99.90;;;;;;5053175;28;20044;-91
2021/06/30 09:14:30;;;;;;;6.20;0.90;;;15.40;99.90;;;;;;5069646;28;20028;-93
2021/06/30 09:17:08;;;;;;;1.38;0.73;;;15.50;99.90;;;;;;5087369;28;20020;-90
2021/06/30 09:19:49;;;;;;;1.52;0.73;;;15.50;99.90;;;;;;5069977;28;20102;-91
2021/06/30 09:22:15;;;;;;;1.40;0.75;;;15.50;99.90;;;;;;5069811;28;20028;-91
2021/06/30 09:24:41;;;;;;;1.30;0.60;;;15.40;99.90;;;;;;5087444;28;20024;-90
2021/06/30 09:27:09;;;;;;;1.35;0.65;;;15.40;99.90;;;;;;5087602;28;20044;-89
2021/06/30 09:29:38;;;;;;;1.83;0.60;;;15.50;99.90;;;;;;5069180;28;20092;-90
2021/06/30 09:32:13;;;;;;;3.10;0.50;;;15.50;99.90;;;;;;5049183;28;20040;-90
2021/06/30 09:34:38;;;;;;;1.05;0.50;;;15.40;99.90;;;;;;5049293;28;20025;-91
2021/06/30 09:37:06;;;;;;;1.30;0.70;;;15.30;99.90;;;;;;5067609;28;20500;-91
2021/06/30 09:39:55;;;;;;;1.38;0.70;;;15.30;99.90;;;;;;5065969;28;20045;-87
2021/06/30 09:42:29;;;;;;;4.75;0.60;;;15.30;99.90;;;;;;5067316;28;20028;-92
2021/06/30 09:45:19;;;;;;;1.17;0.45;;;15.50;99.90;;;;;;5067186;28;20033;-91
2021/06/30 09:47:52;;;;;;;1.52;0.77;;;15.40;99.90;;;;;;5065506;28;20120;-91
2021/06/30 09:50:35;;;;;;;3.60;1.00;;;15.40;99.90;;;;;;5065822;28;20037;-87
2021/06/30 09:53:01;;;;;;;2.70;0.60;;;15.30;99.90;;;;;;5048944;28;20061;-88
2021/06/30 09:55:29;;;;;;;2.25;0.70;;;15.50;99.90;;;;;;5065702;28;20029;-90
2021/06/30 09:57:56;;;;;;;3.00;1.40;;;15.30;99.90;;;;;;5066923;28;20191;-91
2021/06/30 10:00:24;;;;;;;2.15;0.70;;;15.40;99.90;;;;;;5066886;28;20044;-92
2021/06/30 10:02:49;;;;;;;2.40;0.60;;;15.60;99.90;;;;;;5065599;28;20109;-91
2021/06/30 10:05:30;;;;;;;3.05;0.70;;;15.60;99.90;;;;;;5066680;28;20029;-88
2021/06/30 10:08:10;;;;;;;1.98;0.60;;;15.70;99.90;;;;;;5049035;28;20116;-88
2021/06/30 10:10:36;;;;;;;1.50;0.50;;;15.60;99.90;;;;;;5066522;28;20083;-91
2021/06/30 10:13:02;;;;;;;1.80;0.80;;;15.70;99.90;;;;;;5082098;28;20037;-87
2021/06/30 10:15:28;;;;;;;1.40;0.60;;;15.70;99.90;;;;;;5048527;28;20076;-92
2021/06/30 10:17:55;;;;;;;1.70;0.80;;;16.00;99.90;;;;;;5065080;28;20039;-91
2021/06/30 10:20:20;;;;;;;1.40;0.80;;;15.90;99.90;;;;;;5048391;28;20059;-91
2021/06/30 10:22:46;;;;;;;1.50;0.70;;;16.10;99.90;;;;;;5066584;28;20037;-92
2021/06/30 10:25:12;;;;;;;2.85;1.00;;;16.10;99.90;;;;;;5048645;28;20069;-88
2021/06/30 10:27:38;;;;;;;2.08;1.10;;;16.10;99.90;;;;;;5066345;28;20036;-91
2021/06/30 10:30:05;;;;;;;1.65;0.73;;;16.20;99.90;;;;;;5066213;28;20025;-91
2021/06/30 10:32:31;;;;;;;1.98;0.70;;;16.00;99.90;;;;;;5065939;28;20102;-87
2021/06/30 10:35:04;;;;;;;2.60;0.75;;;16.10;99.90;;;;;;5031582;28;20029;-91
2021/06/30 10:37:37;;;;;;;1.90;1.15;;;16.30;99.90;;;;;;5048247;28;20096;-87
2021/06/30 10:40:09;;;;;;;2.25;0.80;;;16.20;99.90;;;;;;5047629;28;20154;-91
2021/06/30 10:42:38;;;;;;;1.70;0.70;;;16.40;99.90;;;;;;5065858;28;20036;-89
2021/06/30 10:45:18;;;;;;;2.30;0.80;;;16.60;99.90;;;;;;5065863;28;20043;-92
2021/06/30 10:47:51;;;;;;;1.10;0.50;;;16.20;99.90;;;;;;5042948;23;20403;-84
2021/06/30 10:50:22;;;;;;;1.70;0.68;;;16.30;99.90;;;;;;5048465;28;20040;-90
2021/06/30 10:52:52;;;;;;;1.92;0.95;;;16.50;99.90;;;;;;5065676;28;20072;-90
2021/06/30 10:55:34;;;;;;;1.70;0.60;;;16.40;99.90;;;;;;5048519;28;20469;-91
2021/06/30 10:58:15;;;;;;;1.70;0.60;;;16.30;99.90;;;;;;5048370;28;20037;-90
2021/06/30 11:01:04;;;;;;;1.42;0.57;;;16.30;99.90;;;;;;5048355;28;20102;-90
2021/06/30 11:03:34;;;;;;;2.95;0.50;;;16.50;99.90;;;;;;5047849;28;20033;-90
2021/06/30 11:06:10;;;;;;;1.90;0.63;;;16.70;99.90;;;;;;5048153;28;20044;-90
2021/06/30 11:08:47;;;;;;;1.20;0.50;;;16.60;99.90;;;;;;5048187;28;20033;-89
2021/06/30 11:11:21;;;;;;;2.28;0.68;;;16.70;99.90;;;;;;5048038;28;20039;-91
2021/06/30 11:14:05;;;;;;;2.28;1.25;;;16.70;99.90;;;;;;5048082;28;20033;-91
2021/06/30 11:16:37;;;;;;;2.42;1.17;;;16.60;99.90;;;;;;5047591;28;20095;-85
2021/06/30 11:19:27;;;;;;;1.65;0.60;;;16.80;99.90;;;;;;5047947;28;20031;-90
2021/06/30 11:22:08;;;;;;;1.60;0.60;;;16.70;99.90;;;;;;5065276;28;20033;-90
2021/06/30 11:27:06;;;;;;;1.42;0.70;;;16.90;99.90;;;;;;5047985;28;20032;-91
2021/06/30 11:29:47;;;;;;;1.58;0.63;;;16.70;99.90;;;;;;5047739;28;20044;-91
2021/06/30 11:35:10;;;;;;;1.42;0.60;;;16.60;99.90;;;;;;5064111;28;20071;-86
2021/06/30 11:37:38;;;;;;;1.40;0.60;;;16.60;99.90;;;;;;5064385;28;20029;-91
2021/06/30 11:40:11;;;;;;;1.63;0.75;;;16.60;99.90;;;;;;5064240;28;20299;-89
2021/06/30 11:42:41;;;;;;;2.33;0.82;;;16.60;99.90;;;;;;5047652;28;20029;-92
2021/06/30 11:45:17;;;;;;;1.73;0.70;;;16.60;99.90;;;;;;5047580;28;20037;-90
2021/06/30 11:47:43;;;;;;;1.85;1.08;;;16.60;99.90;;;;;;5047001;28;20539;-89
2021/06/30 11:50:16;;;;;;;2.65;1.30;;;16.70;99.90;;;;;;5047092;28;20032;-91
2021/06/30 11:52:42;;;;;;;1.58;0.63;;;16.80;99.90;;;;;;5066890;28;20481;-83
2021/06/30 11:55:08;;;;;;;1.90;0.65;;;16.70;99.90;;;;;;5067851;28;20072;-90
2021/06/30 11:57:34;;;;;;;1.70;1.00;;;16.60;99.90;;;;;;5051470;28;20033;-91
2021/06/30 12:00:08;;;;;;;1.30;0.60;;;16.60;99.90;;;;;;5069223;28;20040;-91
2021/06/30 12:02:45;;;;;;;2.85;0.60;;;16.30;99.90;;;;;;5051335;28;20099;-90
2021/06/30 12:05:15;;;;;;;1.40;0.57;;;16.10;99.90;;;;;;5050853;28;20029;-90
2021/06/30 12:07:42;;;;;;;0.98;0.47;;;16.10;99.90;;;;;;5051254;28;20037;-87
2021/06/30 12:10:09;;;;;;;2.10;0.52;;;16.10;99.90;;;;;;5051112;28;20040;-89
2021/06/30 12:12:34;;;;;;;2.58;1.08;;;16.10;99.90;;;;;;5050956;28;20086;-86
2021/06/30 12:15:06;;;;;;;3.47;0.70;;;16.00;99.90;;;;;;5067597;28;20120;-89
2021/06/30 12:17:32;;;;;;;2.90;0.90;;;16.10;99.90;;;;;;5050533;28;20033;-91
2021/06/30 12:20:03;;;;;;;4.13;1.10;;;16.20;99.90;;;;;;5050658;28;20043;-91
2021/06/30 12:22:38;;;;;;;3.38;1.08;;;16.20;99.90;;;;;;5050514;28;20075;-86
2021/06/30 12:25:16;;;;;;;3.08;1.45;;;16.10;99.90;;;;;;5051011;28;20029;-89
2021/06/30 12:27:50;;;;;;;2.13;1.05;;;16.10;99.90;;;;;;5050733;28;20041;-88
2021/06/30 12:30:19;;;;;;;3.35;1.38;;;16.10;99.90;;;;;;5068453;28;20040;-85
2021/06/30 12:32:55;;;;;;;2.33;1.52;;;15.90;99.90;;;;;;5068226;28;20037;-87
2021/06/30 12:35:27;;;;;;;2.78;1.70;;;15.80;99.90;;;;;;5050700;28;20036;-85
2021/06/30 12:37:58;;;;;;;2.60;1.48;;;15.80;99.90;;;;;;5068071;28;20074;-84
2021/06/30 12:40:24;;;;;;;4.78;2.08;;;16.00;99.90;;;;;;5050272;28;20102;-85
2021/06/30 12:42:51;;;;;;;2.42;1.40;;;16.10;99.90;;;;;;5068134;28;20029;-86
2021/06/30 12:45:20;;;;;;;6.13;2.03;;;16.20;99.90;;;;;;5050236;28;20033;-87
2021/06/30 12:47:58;;;;;;;3.67;2.42;;;15.90;99.90;;;;;;5049631;28;20326;-85
2021/06/30 12:50:36;;;;;;;4.38;3.08;;;16.00;99.90;;;;;;5050180;28;20033;-83
2021/06/30 12:53:12;;;;;;;3.67;2.20;;;16.10;99.90;;;;;;5068066;28;20025;-90
2021/06/30 12:56:02;;;;;;;5.63;3.70;;;16.20;99.90;;;;;;5068147;28;20493;-87
2021/06/30 12:58:45;;;;;;;4.30;2.72;;;16.00;99.90;;;;;;5050341;28;20102;-93
2021/06/30 13:01:39;;;;;;;3.65;2.70;;;16.00;99.90;;;;;;5033685;28;20124;-91
2021/06/30 13:04:07;;;;;;;4.50;2.83;;;16.20;99.90;;;;;;5049724;28;20059;-93